Time;durP1;ratioP1;P1;durP2;ratioP2;P2;SDS_P1;SDS_P2;PMS_P1;PMS_P2;Temp;Humidity;BMP_temperature;BMP_pressure;BME280_temperature;BME280_humidity;BME280_pressure;Samples;Min_cycle;Max_cycle;Signal;HPM_P1;HPM_P2
2023/01/23 00:00:53;;;;;;;39.70;21.20;;;;;;;0.42;100.00;99381.96;109303;1232;62024;-76
2023/01/23 00:03:19;;;;;;;46.70;22.40;;;;;;;0.42;100.00;99383.10;109521;1232;72891;-79
2023/01/23 00:05:55;;;;;;;36.90;19.80;;;;;;;0.41;100.00;99392.20;109584;1231;59665;-76
2023/01/23 00:08:24;;;;;;;38.20;20.00;;;;;;;0.40;100.00;99391.13;110983;1231;59984;-76
2023/01/23 00:10:50;;;;;;;37.90;18.90;;;;;;;0.39;100.00;99400.66;109679;1232;72516;-76
2023/01/23 00:13:17;;;;;;;36.50;19.10;;;;;;;0.37;100.00;99402.52;109369;1235;70508;-78
2023/01/23 00:15:43;;;;;;;37.10;20.10;;;;;;;0.37;100.00;99403.06;109836;1231;71376;-76
2023/01/23 00:18:10;;;;;;;37.70;19.70;;;;;;;0.34;100.00;99406.73;110491;1232;60283;-78
2023/01/23 00:20:37;;;;;;;37.10;18.70;;;;;;;0.34;100.00;99411.81;109371;1232;59010;-79
2023/01/23 00:23:03;;;;;;;37.00;19.30;;;;;;;0.34;100.00;99418.11;109472;1236;72516;-76
2023/01/23 00:25:30;;;;;;;39.30;21.30;;;;;;;0.33;100.00;99421.32;109357;1232;60400;-76
2023/01/23 00:27:56;;;;;;;40.40;21.20;;;;;;;0.30;100.00;99418.77;110806;1232;58478;-76
2023/01/23 00:30:23;;;;;;;36.20;19.50;;;;;;;0.30;100.00;99415.41;109422;1237;60137;-76
2023/01/23 00:32:49;;;;;;;42.00;20.20;;;;;;;0.30;100.00;99420.88;109347;1232;58975;-78
2023/01/23 00:35:16;;;;;;;47.50;24.00;;;;;;;0.30;100.00;99422.05;109473;1237;60176;-78
2023/01/23 00:37:42;;;;;;;38.10;20.40;;;;;;;0.29;100.00;99425.66;110553;1231;60911;-78
2023/01/23 00:40:09;;;;;;;41.60;21.30;;;;;;;0.29;100.00;99430.29;110056;1232;60521;-76
2023/01/23 00:42:35;;;;;;;36.50;18.00;;;;;;;0.31;100.00;99431.67;109200;1237;61201;-76
2023/01/23 00:45:02;;;;;;;36.60;20.60;;;;;;;0.30;100.00;99433.17;109536;1232;60088;-76
2023/01/23 00:47:29;;;;;;;42.70;23.10;;;;;;;0.31;100.00;99435.44;110324;1231;72426;-76
2023/01/23 00:49:57;;;;;;;41.30;24.30;;;;;;;0.32;100.00;99434.95;110344;1232;70066;-76
2023/01/23 00:52:25;;;;;;;38.60;19.30;;;;;;;0.34;100.00;99429.77;109149;1235;71333;-78
2023/01/23 00:54:51;;;;;;;36.40;20.90;;;;;;;0.31;100.00;99424.41;109585;1232;61181;-78
2023/01/23 00:57:18;;;;;;;41.00;20.60;;;;;;;0.30;100.00;99428.38;110335;1232;59210;-76
2023/01/23 00:59:44;;;;;;;38.80;18.80;;;;;;;0.24;100.00;99436.19;110689;1232;60570;-78
2023/01/23 01:02:10;;;;;;;41.50;20.00;;;;;;;0.13;100.00;99436.74;109493;1232;60509;-78
2023/01/23 01:04:37;;;;;;;38.40;19.70;;;;;;;0.16;100.00;99431.98;109613;1232;72413;-76
2023/01/23 01:07:04;;;;;;;36.50;19.70;;;;;;;0.15;100.00;99439.69;110104;1232;59284;-76
2023/01/23 01:09:30;;;;;;;39.10;20.20;;;;;;;0.12;100.00;99444.32;110455;1236;59373;-78
2023/01/23 01:11:57;;;;;;;35.80;18.80;;;;;;;0.13;100.00;99450.18;109222;1237;60522;-78
2023/01/23 01:14:23;;;;;;;37.40;18.90;;;;;;;0.15;100.00;99450.95;109263;1232;59306;-76
2023/01/23 01:16:49;;;;;;;36.20;18.70;;;;;;;0.13;100.00;99457.61;109472;1232;59290;-78
2023/01/23 01:19:16;;;;;;;38.80;19.60;;;;;;;0.12;100.00;99458.17;110553;1232;59010;-78
2023/01/23 01:21:43;;;;;;;42.10;20.50;;;;;;;0.09;100.00;99459.31;109146;1232;61283;-78
2023/01/23 01:24:09;;;;;;;41.70;20.90;;;;;;;0.02;100.00;99462.78;109122;1237;59220;-79
2023/01/23 01:26:36;;;;;;;44.70;19.80;;;;;;;-0.14;100.00;99460.15;109431;1232;60334;-76
2023/01/23 01:29:02;;;;;;;37.50;18.20;;;;;;;-0.10;100.00;99456.85;110899;1236;59384;-77
2023/01/23 01:31:29;;;;;;;37.10;16.70;;;;;;;-0.06;100.00;99457.34;109176;1232;60406;-77
2023/01/23 01:33:55;;;;;;;35.80;17.30;;;;;;;-0.07;100.00;99456.85;109311;1236;60548;-78
2023/01/23 01:36:22;;;;;;;37.40;17.50;;;;;;;-0.05;100.00;99453.36;109225;1232;60522;-78
2023/01/23 01:38:49;;;;;;;38.50;18.70;;;;;;;-0.02;100.00;99452.04;111319;1232;70835;-79
2023/01/23 01:41:16;;;;;;;38.70;18.70;;;;;;;-0.01;100.00;99447.83;109428;1235;70862;-76
2023/01/23 01:43:42;;;;;;;41.80;18.70;;;;;;;-0.01;100.00;99450.83;109147;1232;60400;-80
2023/01/23 01:46:20;;;;;;;43.80;20.00;;;;;;;0.00;100.00;99452.99;109304;1237;60117;-79
2023/01/23 01:48:59;;;;;;;46.60;21.40;;;;;;;0.02;100.00;99461.33;111229;1236;73733;-79
2023/01/23 01:51:50;;;;;;;49.00;18.80;;;;;;;0.05;100.00;99464.23;109414;1232;69903;-79
2023/01/23 01:54:34;;;;;;;41.00;19.80;;;;;;;0.07;100.00;99467.20;110228;1232;71753;-79
2023/01/23 01:57:07;;;;;;;40.20;18.00;;;;;;;0.08;100.00;99465.97;109379;1232;60275;-79
2023/01/23 01:59:44;;;;;;;42.80;18.70;;;;;;;0.07;100.00;99469.45;110008;1232;59976;-77
2023/01/23 02:02:13;;;;;;;40.70;19.90;;;;;;;0.04;100.00;99474.27;110305;1233;72460;-76
2023/01/23 02:04:43;;;;;;;54.50;27.00;;;;;;;0.06;100.00;99473.80;109222;1241;70805;-76
2023/01/23 02:07:24;;;;;;;59.70;27.30;;;;;;;0.09;100.00;99469.08;109860;1232;72429;-76
2023/01/23 02:09:51;;;;;;;42.30;22.00;;;;;;;0.13;100.00;99469.70;110647;1237;60630;-78
2023/01/23 02:12:17;;;;;;;42.10;20.50;;;;;;;0.13;100.00;99470.33;109526;1237;60403;-79
2023/01/23 02:14:43;;;;;;;45.30;22.40;;;;;;;0.10;100.00;99470.33;109305;1232;60627;-76
2023/01/23 02:17:10;;;;;;;48.80;24.00;;;;;;;0.11;100.00;99467.63;110263;1231;60298;-77
2023/01/23 02:19:56;;;;;;;50.00;25.40;;;;;;;0.10;100.00;99465.47;110432;1232;59042;-79
2023/01/23 02:22:31;;;;;;;43.10;21.90;;;;;;;-0.02;100.00;99468.37;109109;1232;61207;-79
2023/01/23 02:25:02;;;;;;;48.00;22.60;;;;;;;-0.03;100.00;99472.96;109648;1236;60737;-76
2023/01/23 02:27:28;;;;;;;42.80;21.40;;;;;;;-0.01;100.00;99478.05;110096;1231;73603;-79
2023/01/23 02:29:55;;;;;;;49.30;23.80;;;;;;;-0.04;100.00;99478.50;110026;1231;59994;-78
2023/01/23 02:32:23;;;;;;;58.00;25.20;;;;;;;-0.04;100.00;99485.50;109299;1232;60442;-76
2023/01/23 02:34:51;;;;;;;45.70;23.00;;;;;;;-0.03;100.00;99488.89;109473;1231;59081;-78
2023/01/23 02:37:18;;;;;;;42.20;19.70;;;;;;;-0.01;100.00;99484.73;110051;1231;60068;-79
2023/01/23 02:39:45;;;;;;;46.80;22.50;;;;;;;-0.01;100.00;99486.58;110368;1231;73565;-76
2023/01/23 02:42:11;;;;;;;43.90;23.30;;;;;;;-0.02;100.00;99481.81;109115;1238;61210;-77
2023/01/23 02:44:38;;;;;;;47.40;21.80;;;;;;;-0.01;100.00;99480.15;109357;1233;61039;-76
2023/01/23 02:47:07;;;;;;;51.10;22.50;;;;;;;-0.01;100.00;99481.45;109683;1232;60892;-78
2023/01/23 02:49:34;;;;;;;38.90;20.30;;;;;;;-0.02;100.00;99486.41;110469;1232;60313;-77
2023/01/23 02:52:00;;;;;;;46.40;22.80;;;;;;;-0.01;100.00;99489.70;109492;1241;73376;-77
2023/01/23 02:54:27;;;;;;;50.70;25.30;;;;;;;0.03;100.00;99490.90;109267;1232;70627;-77
2023/01/23 02:56:53;;;;;;;46.80;23.30;;;;;;;0.06;100.00;99491.68;109410;1232;60874;-79
2023/01/23 03:02:05;;;;;;;45.10;20.40;;;;;;;-0.01;100.00;99494.58;109627;1236;60655;-79
2023/01/23 03:04:31;;;;;;;48.50;22.70;;;;;;;-0.05;100.00;99491.27;109366;1232;59841;-78
2023/01/23 03:06:58;;;;;;;49.20;23.50;;;;;;;-0.03;100.00;99489.71;109793;1231;61309;-78
2023/01/23 03:09:24;;;;;;;53.20;23.90;;;;;;;-0.01;100.00;99490.27;111232;1232;60924;-77
2023/01/23 03:11:51;;;;;;;49.70;21.50;;;;;;;0.02;100.00;99494.94;109393;1232;59710;-76
2023/01/23 03:14:19;;;;;;;49.90;23.30;;;;;;;0.02;100.00;99499.00;109417;1231;59835;-78
2023/01/23 03:16:50;;;;;;;41.60;19.80;;;;;;;0.02;100.00;99502.44;109513;1232;74458;-79
2023/01/23 03:19:17;;;;;;;45.20;19.30;;;;;;;0.00;100.00;99499.73;111648;1232;70960;-77
2023/01/23 03:21:43;;;;;;;38.30;18.20;;;;;;;-0.06;100.00;99494.05;109301;1232;72594;-79
2023/01/23 03:24:11;;;;;;;41.10;19.40;;;;;;;-0.08;100.00;99489.29;109530;1235;60832;-76
2023/01/23 03:26:38;;;;;;;38.80;17.60;;;;;;;-0.09;100.00;99494.89;109242;1232;61559;-76
2023/01/23 03:32:07;;;;;;;38.90;19.40;;;;;;;-0.15;100.00;99507.02;108830;1241;69890;-76
2023/01/23 03:34:34;;;;;;;38.30;17.60;;;;;;;-0.12;100.00;99506.34;109115;1232;71338;-76
2023/01/23 03:37:02;;;;;;;40.80;18.20;;;;;;;-0.12;100.00;99502.58;110350;1232;59328;-79
2023/01/23 03:42:13;;;;;;;35.90;16.10;;;;;;;-0.13;100.00;99500.39;109271;1232;73426;-76
2023/01/23 03:44:40;;;;;;;36.60;17.60;;;;;;;-0.12;100.00;99502.94;109435;1232;61080;-76
2023/01/23 03:47:06;;;;;;;46.10;18.90;;;;;;;-0.12;100.00;99510.53;110202;1232;59870;-76
2023/01/23 03:49:33;;;;;;;40.00;18.80;;;;;;;-0.08;100.00;99513.48;110640;1232;61264;-77
2023/01/23 03:51:59;;;;;;;46.10;22.10;;;;;;;-0.05;100.00;99515.59;109430;1232;61315;-79
2023/01/23 03:54:26;;;;;;;51.30;24.10;;;;;;;-0.01;100.00;99521.90;109669;1236;60976;-76
2023/01/23 03:56:52;;;;;;;47.00;24.40;;;;;;;0.02;100.00;99522.89;109460;1232;61198;-76
2023/01/23 03:59:19;;;;;;;50.70;24.40;;;;;;;0.02;100.00;99522.70;110712;1232;59030;-77
2023/01/23 04:01:46;;;;;;;49.00;22.90;;;;;;;0.04;100.00;99527.53;109117;1232;61227;-79
2023/01/23 04:04:13;;;;;;;42.10;22.00;;;;;;;0.07;100.00;99528.23;109580;1232;61942;-78
2023/01/23 04:06:39;;;;;;;45.90;23.00;;;;;;;0.09;100.00;99530.52;109363;1236;59783;-79
2023/01/23 04:09:06;;;;;;;44.00;20.80;;;;;;;0.12;100.00;99532.89;111213;1232;59862;-79
2023/01/23 04:11:32;;;;;;;39.30;19.60;;;;;;;0.12;100.00;99538.96;109294;1232;62029;-79
2023/01/23 04:13:58;;;;;;;60.60;28.60;;;;;;;0.06;100.00;99544.13;109410;1232;59854;-77
2023/01/23 04:16:27;;;;;;;55.70;30.90;;;;;;;0.00;100.00;99543.28;109234;1231;59828;-76
2023/01/23 04:18:54;;;;;;;28.00;15.80;;;;;;;0.02;100.00;99542.25;111154;1231;74440;-76
2023/01/23 04:21:20;;;;;;;21.90;11.20;;;;;;;0.03;100.00;99549.20;109553;1237;69972;-77
2023/01/23 04:23:47;;;;;;;19.90;10.00;;;;;;;0.01;100.00;99551.39;109298;1232;60891;-76
2023/01/23 04:26:13;;;;;;;24.40;10.70;;;;;;;0.00;100.00;99547.02;109237;1232;70506;-77
2023/01/23 04:28:40;;;;;;;23.70;11.50;;;;;;;-0.01;100.00;99535.38;111221;1231;59893;-76
2023/01/23 04:31:08;;;;;;;19.30;10.10;;;;;;;0.01;100.00;99533.59;109221;1235;60819;-77
2023/01/23 04:33:34;;;;;;;26.30;13.60;;;;;;;-0.02;100.00;99534.75;109212;1235;70959;-76
2023/01/23 04:36:02;;;;;;;26.70;12.70;;;;;;;0.02;100.00;99533.92;109281;1234;71288;-79
2023/01/23 04:38:29;;;;;;;28.80;14.60;;;;;;;0.05;100.00;99535.16;111334;1232;60898;-78
2023/01/23 04:40:55;;;;;;;30.20;15.60;;;;;;;0.07;100.00;99542.17;109684;1237;61220;-76
2023/01/23 04:43:21;;;;;;;45.20;27.10;;;;;;;0.07;100.00;99545.14;109472;1231;59883;-77
2023/01/23 04:45:51;;;;;;;39.80;24.10;;;;;;;0.09;100.00;99546.56;110003;1237;61233;-79
2023/01/23 04:48:18;;;;;;;39.50;21.80;;;;;;;0.13;100.00;99549.35;110759;1232;71299;-79
2023/01/23 04:50:44;;;;;;;41.60;22.90;;;;;;;0.14;100.00;99551.80;109329;1232;61124;-76
2023/01/23 04:53:12;;;;;;;43.40;22.20;;;;;;;0.15;100.00;99555.95;109707;1235;59780;-76
2023/01/23 04:55:39;;;;;;;38.40;21.90;;;;;;;0.15;100.00;99549.19;109318;1232;74691;-78
2023/01/23 04:58:05;;;;;;;40.60;19.90;;;;;;;0.16;100.00;99553.31;110884;1231;59779;-76
2023/01/23 05:00:32;;;;;;;37.30;20.80;;;;;;;0.17;100.00;99563.95;109644;1235;59788;-77
2023/01/23 05:02:58;;;;;;;33.70;19.60;;;;;;;0.13;100.00;99561.91;109512;1231;60900;-78
2023/01/23 05:05:25;;;;;;;50.20;26.50;;;;;;;0.14;100.00;99560.73;109519;1231;59808;-76
2023/01/23 05:07:52;;;;;;;47.40;25.70;;;;;;;0.11;100.00;99556.62;110451;1232;73299;-79
2023/01/23 05:10:19;;;;;;;48.90;24.90;;;;;;;0.11;100.00;99556.42;109637;1232;70989;-79
2023/01/23 05:12:45;;;;;;;51.00;25.80;;;;;;;0.10;100.00;99561.13;109183;1232;72235;-77
2023/01/23 05:15:11;;;;;;;44.30;22.00;;;;;;;0.12;100.00;99562.85;109416;1235;59691;-76
2023/01/23 05:17:38;;;;;;;68.80;40.50;;;;;;;0.10;100.00;99560.90;110581;1232;60140;-79
2023/01/23 05:20:05;;;;;;;69.80;42.00;;;;;;;0.07;100.00;99559.56;109801;1232;60954;-79
2023/01/23 05:22:32;;;;;;;52.00;29.30;;;;;;;0.01;100.00;99562.04;109250;1232;60590;-79
2023/01/23 05:24:59;;;;;;;53.10;23.90;;;;;;;-0.01;100.00;99569.49;109518;1231;71315;-79
2023/01/23 05:27:25;;;;;;;76.30;42.70;;;;;;;-0.02;100.00;99570.67;110239;1231;59763;-79
2023/01/23 05:29:52;;;;;;;47.40;27.20;;;;;;;-0.02;100.00;99566.27;110125;1237;61282;-79
2023/01/23 05:32:18;;;;;;;41.30;21.80;;;;;;;-0.03;100.00;99566.15;109528;1232;59893;-77
2023/01/23 05:34:45;;;;;;;43.40;23.10;;;;;;;-0.02;100.00;99570.50;109586;1234;59910;-79
2023/01/23 05:37:11;;;;;;;51.90;26.80;;;;;;;-0.03;100.00;99577.88;109837;1232;61965;-78
2023/01/23 05:39:37;;;;;;;54.80;31.20;;;;;;;-0.01;100.00;99579.86;110356;1235;61299;-78
2023/01/23 05:42:04;;;;;;;60.10;35.20;;;;;;;0.02;100.00;99583.39;109123;1232;60885;-76
2023/01/23 05:44:30;;;;;;;58.00;32.30;;;;;;;0.04;100.00;99581.91;109175;1232;60960;-76
2023/01/23 05:46:57;;;;;;;46.90;27.00;;;;;;;0.06;100.00;99585.45;109442;1232;59836;-78
2023/01/23 05:49:23;;;;;;;39.00;20.10;;;;;;;0.05;100.00;99584.47;110143;1236;61038;-76
2023/01/23 05:51:49;;;;;;;53.40;23.10;;;;;;;0.05;100.00;99590.20;109263;1232;61279;-79
2023/01/23 05:54:16;;;;;;;63.10;35.00;;;;;;;0.05;100.00;99591.60;109335;1232;61230;-79
2023/01/23 05:56:42;;;;;;;58.10;32.70;;;;;;;0.04;100.00;99590.35;109285;1232;62090;-78
2023/01/23 05:59:09;;;;;;;71.90;35.60;;;;;;;0.05;100.00;99594.30;110591;1232;60477;-76
2023/01/23 06:01:35;;;;;;;74.90;37.80;;;;;;;0.07;100.00;99595.61;109220;1232;59906;-77
2023/01/23 06:04:02;;;;;;;79.00;39.80;;;;;;;0.10;100.00;99601.85;109136;1232;62036;-77
2023/01/23 06:06:28;;;;;;;62.60;35.50;;;;;;;0.11;100.00;99603.20;109291;1232;60641;-77
2023/01/23 06:08:55;;;;;;;58.30;31.30;;;;;;;0.10;100.00;99606.31;111190;1234;59777;-76
2023/01/23 06:11:21;;;;;;;69.70;35.80;;;;;;;0.12;100.00;99610.57;109111;1232;62068;-79
2023/01/23 06:13:47;;;;;;;101.20;50.50;;;;;;;0.07;100.00;99613.23;109392;1232;60071;-76
2023/01/23 06:16:14;;;;;;;96.00;54.60;;;;;;;0.05;100.00;99612.39;109699;1232;60904;-77
2023/01/23 06:18:40;;;;;;;124.30;61.60;;;;;;;0.05;100.00;99620.71;110466;1232;59944;-77
2023/01/23 06:21:07;;;;;;;84.70;44.50;;;;;;;0.04;100.00;99626.69;109147;1235;61265;-79
2023/01/23 06:23:33;;;;;;;62.40;34.70;;;;;;;0.04;100.00;99622.83;109193;1232;61182;-76
2023/01/23 06:26:00;;;;;;;70.00;39.10;;;;;;;0.06;100.00;99624.71;109392;1232;61982;-77
2023/01/23 06:28:27;;;;;;;68.70;41.00;;;;;;;0.06;100.00;99627.05;110726;1232;59874;-76
2023/01/23 06:30:53;;;;;;;58.40;33.20;;;;;;;0.07;100.00;99631.20;109078;1236;59816;-79
2023/01/23 06:33:19;;;;;;;42.90;23.90;;;;;;;0.06;100.00;99629.67;109263;1232;60821;-79
2023/01/23 06:35:46;;;;;;;35.00;20.00;;;;;;;0.07;100.00;99631.70;109617;1231;60835;-77
2023/01/23 06:38:12;;;;;;;52.40;28.50;;;;;;;0.07;100.00;99637.03;110348;1236;61172;-76
2023/01/23 06:40:39;;;;;;;42.00;21.80;;;;;;;0.02;100.00;99633.00;109541;1231;62093;-77
2023/01/23 06:43:05;;;;;;;43.00;23.70;;;;;;;0.01;100.00;99631.30;109470;1237;60720;-76
2023/01/23 06:45:31;;;;;;;61.80;33.80;;;;;;;0.01;100.00;99631.34;109630;1231;60017;-77
2023/01/23 06:47:59;;;;;;;55.20;31.30;;;;;;;0.03;100.00;99631.27;110184;1232;60814;-79
2023/01/23 06:50:25;;;;;;;53.50;27.70;;;;;;;0.08;100.00;99638.40;109830;1232;59197;-77
2023/01/23 06:52:52;;;;;;;41.50;23.10;;;;;;;0.10;100.00;99640.93;109207;1231;59841;-76
2023/01/23 06:55:19;;;;;;;56.50;30.80;;;;;;;0.14;100.00;99640.02;109231;1234;60716;-77
2023/01/23 06:57:46;;;;;;;58.20;35.20;;;;;;;0.18;100.00;99641.36;110135;1232;61374;-79
2023/01/23 07:00:13;;;;;;;48.90;25.40;;;;;;;0.21;100.00;99642.79;109637;1231;59721;-79
2023/01/23 07:02:39;;;;;;;43.60;23.70;;;;;;;0.25;100.00;99643.71;109174;1232;72464;-77
2023/01/23 07:05:06;;;;;;;52.60;26.40;;;;;;;0.25;100.00;99643.66;109466;1231;59867;-79
2023/01/23 07:07:33;;;;;;;83.00;51.60;;;;;;;0.28;100.00;99643.35;110073;1232;59778;-76
2023/01/23 07:09:59;;;;;;;79.00;33.90;;;;;;;0.28;100.00;99639.86;110229;1234;59417;-78
2023/01/23 07:12:25;;;;;;;69.10;29.90;;;;;;;0.30;100.00;99643.13;109299;1235;59722;-76
2023/01/23 07:14:52;;;;;;;65.90;36.20;;;;;;;0.32;100.00;99641.89;109264;1231;59816;-79
2023/01/23 07:17:18;;;;;;;67.40;31.70;;;;;;;0.35;100.00;99642.91;110361;1231;60467;-76
2023/01/23 07:19:45;;;;;;;64.40;33.30;;;;;;;0.39;100.00;99648.73;110765;1232;60241;-79
2023/01/23 07:22:11;;;;;;;73.40;34.50;;;;;;;0.35;100.00;99650.91;109179;1232;60708;-76
2023/01/23 07:24:38;;;;;;;68.20;37.50;;;;;;;0.35;100.00;99649.28;109457;1234;61291;-77
2023/01/23 07:27:05;;;;;;;74.90;40.30;;;;;;;0.40;100.00;99651.66;109868;1231;72461;-76
2023/01/23 07:29:31;;;;;;;73.00;44.10;;;;;;;0.42;100.00;99656.35;112089;1232;58926;-78
2023/01/23 07:31:59;;;;;;;70.60;44.10;;;;;;;0.45;100.00;99658.38;112103;1234;58941;-79
2023/01/23 07:34:26;;;;;;;66.90;37.70;;;;;;;0.48;100.00;99661.13;111078;1232;74432;-76
2023/01/23 07:36:53;;;;;;;53.30;31.20;;;;;;;0.53;100.00;99656.20;109705;1232;69685;-76
2023/01/23 07:39:19;;;;;;;56.00;29.70;;;;;;;0.57;100.00;99658.20;110968;1232;72406;-77
2023/01/23 07:41:45;;;;;;;73.70;43.40;;;;;;;0.52;100.00;99662.60;109571;1232;60776;-76
2023/01/23 07:44:16;;;;;;;78.10;43.10;;;;;;;0.53;100.00;99664.52;111802;1232;59274;-77
2023/01/23 07:46:44;;;;;;;62.80;34.90;;;;;;;0.57;100.00;99665.86;110782;1234;74201;-76
2023/01/23 07:49:10;;;;;;;56.70;29.00;;;;;;;0.59;100.00;99668.27;110560;1235;69833;-79
2023/01/23 07:51:37;;;;;;;70.00;37.90;;;;;;;0.61;100.00;99667.38;109752;1232;72100;-76
2023/01/23 07:54:03;;;;;;;53.50;29.30;;;;;;;0.60;100.00;99673.09;109724;1232;61079;-77
2023/01/23 07:56:31;;;;;;;49.80;27.40;;;;;;;0.62;100.00;99675.42;109243;1233;62098;-76
2023/01/23 07:58:58;;;;;;;56.00;26.50;;;;;;;0.63;100.00;99678.28;110272;1234;74590;-79
2023/01/23 08:01:25;;;;;;;55.00;28.30;;;;;;;0.63;100.00;99674.16;109956;1232;70970;-77
2023/01/23 08:03:52;;;;;;;62.60;31.90;;;;;;;0.66;100.00;99674.21;109261;1232;59901;-79
2023/01/23 08:06:18;;;;;;;60.00;33.90;;;;;;;0.69;100.00;99678.84;109280;1232;61521;-76
2023/01/23 08:08:48;;;;;;;82.80;44.20;;;;;;;0.72;100.00;99681.48;110074;1232;61191;-79
2023/01/23 08:11:14;;;;;;;48.30;25.10;;;;;;;0.75;100.00;99684.00;110454;1234;74404;-79
2023/01/23 08:13:41;;;;;;;110.90;51.80;;;;;;;0.74;100.00;99683.94;109584;1232;70919;-77
2023/01/23 08:16:07;;;;;;;85.80;45.80;;;;;;;0.67;100.00;99689.92;109127;1235;72457;-78
2023/01/23 08:18:34;;;;;;;109.10;52.70;;;;;;;0.64;100.00;99689.61;110374;1231;59985;-77
2023/01/23 08:21:01;;;;;;;105.20;49.50;;;;;;;0.66;100.00;99695.23;109604;1232;60890;-78
2023/01/23 08:23:30;;;;;;;100.00;47.90;;;;;;;0.68;100.00;99698.31;109175;1237;74418;-79
2023/01/23 08:25:57;;;;;;;96.20;46.40;;;;;;;0.71;100.00;99702.89;109792;1232;71679;-78
2023/01/23 08:28:24;;;;;;;99.40;51.20;;;;;;;0.71;100.00;99708.39;111258;1232;71618;-76
2023/01/23 08:30:51;;;;;;;80.90;42.40;;;;;;;0.72;100.00;99705.38;112120;1232;59042;-79
2023/01/23 08:33:18;;;;;;;66.50;37.40;;;;;;;0.72;100.00;99705.94;112055;1232;59848;-79
2023/01/23 08:35:51;;;;;;;74.80;41.80;;;;;;;0.68;100.00;99703.52;112052;1231;72292;-77
2023/01/23 08:38:18;;;;;;;64.20;37.20;;;;;;;0.67;100.00;99707.39;112085;1232;69943;-79
2023/01/23 08:40:45;;;;;;;71.30;36.10;;;;;;;0.71;100.00;99702.65;111950;1231;71299;-77
2023/01/23 08:43:13;;;;;;;68.20;33.60;;;;;;;0.75;100.00;99702.34;111492;1232;60995;-78
2023/01/23 08:45:40;;;;;;;66.00;29.80;;;;;;;0.78;100.00;99704.30;109244;1232;60859;-77
2023/01/23 08:48:07;;;;;;;88.60;45.00;;;;;;;0.80;100.00;99711.00;110684;1232;74479;-77
2023/01/23 08:50:34;;;;;;;78.50;41.90;;;;;;;0.82;100.00;99708.27;109958;1232;69811;-79
2023/01/23 08:53:00;;;;;;;71.70;36.30;;;;;;;0.87;100.00;99708.91;109646;1234;71230;-76
2023/01/23 08:55:27;;;;;;;65.00;32.40;;;;;;;0.90;100.00;99709.33;109563;1236;60842;-76
2023/01/23 08:57:54;;;;;;;51.00;27.80;;;;;;;0.96;100.00;99714.14;110693;1231;59790;-77
2023/01/23 09:00:21;;;;;;;59.50;33.00;;;;;;;0.98;100.00;99718.73;109922;1232;74296;-79
2023/01/23 09:02:47;;;;;;;50.90;29.80;;;;;;;1.00;100.00;99717.08;109000;1232;277769;-77
2023/01/23 09:05:14;;;;;;;46.40;23.50;;;;;;;1.07;100.00;99717.50;109188;1232;59859;-79
2023/01/23 09:07:40;;;;;;;49.90;24.70;;;;;;;1.15;100.00;99716.41;110976;1231;60718;-77
2023/01/23 09:10:08;;;;;;;73.30;41.10;;;;;;;1.22;100.00;99716.13;109900;1232;61294;-79
2023/01/23 09:12:35;;;;;;;76.80;41.80;;;;;;;1.27;100.00;99715.01;109556;1231;74396;-77
2023/01/23 09:15:01;;;;;;;73.60;40.50;;;;;;;1.32;100.00;99715.45;109505;1232;71053;-79
2023/01/23 09:17:28;;;;;;;77.80;35.30;;;;;;;1.38;100.00;99714.73;110290;1231;61220;-76
2023/01/23 09:19:54;;;;;;;69.90;37.20;;;;;;;1.40;100.00;99716.65;109761;1237;60941;-79
2023/01/23 09:22:20;;;;;;;64.50;30.60;;;;;;;1.47;100.00;99714.42;109170;1235;61344;-77
2023/01/23 09:24:47;;;;;;;104.90;47.60;;;;;;;1.54;100.00;99713.30;111043;1231;61204;-77
2023/01/23 09:27:13;;;;;;;84.00;42.10;;;;;;;1.50;100.00;99709.13;110511;1236;61421;-79
2023/01/23 09:29:40;;;;;;;85.70;41.70;;;;;;;1.53;100.00;99710.36;111534;1232;59716;-79
2023/01/23 09:32:06;;;;;;;76.80;43.20;;;;;;;1.60;100.00;99711.85;109204;1234;59857;-79
2023/01/23 09:34:32;;;;;;;75.20;40.70;;;;;;;1.72;100.00;99709.98;109596;1235;60935;-79
2023/01/23 09:36:59;;;;;;;70.70;38.90;;;;;;;1.79;100.00;99703.57;109418;1235;61370;-79
2023/01/23 09:39:25;;;;;;;75.60;40.80;;;;;;;1.82;100.00;99703.44;110702;1232;61416;-77
2023/01/23 09:41:52;;;;;;;86.70;44.20;;;;;;;1.83;100.00;99701.84;109305;1232;61332;-76
2023/01/23 09:44:35;;;;;;;90.60;47.20;;;;;;;1.88;100.00;99702.50;109278;1232;61923;-76
2023/01/23 09:47:12;;;;;;;75.60;40.20;;;;;;;1.93;100.00;99704.71;109723;1237;59944;-77
2023/01/23 09:49:44;;;;;;;68.20;40.50;;;;;;;1.92;100.00;99705.60;110000;1232;74511;-76
2023/01/23 09:52:11;;;;;;;70.00;40.20;;;;;;;1.98;100.00;99703.26;109426;1232;69925;-79
2023/01/23 09:55:08;;;;;;;72.80;43.20;;;;;;;2.04;100.00;99702.05;109473;1232;72396;-78
2023/01/23 09:57:44;;;;;;;72.80;39.80;;;;;;;2.04;100.00;99700.38;109813;1232;59776;-77
2023/01/23 10:00:26;;;;;;;74.10;38.80;;;;;;;2.05;100.00;99697.60;110668;1234;60753;-79
2023/01/23 10:02:52;;;;;;;71.60;35.00;;;;;;;2.02;100.00;99691.91;109459;1236;72849;-79
2023/01/23 10:05:48;;;;;;;65.10;31.30;;;;;;;1.97;100.00;99692.06;109130;1238;61984;-77
2023/01/23 10:08:26;;;;;;;51.60;30.10;;;;;;;2.01;100.00;99694.73;111086;1235;72474;-77
2023/01/23 10:11:06;;;;;;;46.40;25.20;;;;;;;2.00;100.00;99694.84;109777;1236;59817;-77
2023/01/23 10:14:04;;;;;;;41.20;23.90;;;;;;;2.04;100.00;99693.63;109810;1235;60863;-77
2023/01/23 10:16:36;;;;;;;42.20;21.80;;;;;;;2.07;100.00;99689.73;109741;1234;74465;-79
2023/01/23 10:19:14;;;;;;;46.40;26.50;;;;;;;2.15;100.00;99689.55;111104;1232;70946;-79
2023/01/23 10:21:51;;;;;;;48.00;27.80;;;;;;;2.14;100.00;99690.36;111765;1232;72424;-79
2023/01/23 10:24:29;;;;;;;68.80;36.40;;;;;;;2.04;100.00;99689.11;112085;1232;58942;-79
2023/01/23 10:27:00;;;;;;;91.40;51.30;;;;;;;2.07;100.00;99691.53;112004;1232;59634;-77
2023/01/23 10:29:31;;;;;;;71.30;36.60;;;;;;;2.14;100.00;99691.31;111940;1232;74478;-76
2023/01/23 10:32:00;;;;;;;66.50;33.80;;;;;;;2.18;100.00;99692.96;111862;1232;70987;-76
2023/01/23 10:34:36;;;;;;;50.10;28.10;;;;;;;2.21;100.00;99692.39;110663;1232;72567;-77
2023/01/23 10:37:15;;;;;;;45.00;24.30;;;;;;;2.23;100.00;99692.38;109768;1237;60866;-79
2023/01/23 10:39:50;;;;;;;46.00;24.30;;;;;;;2.25;100.00;99692.83;110728;1232;59803;-77
2023/01/23 10:42:19;;;;;;;39.40;24.20;;;;;;;2.22;100.00;99686.94;111235;1235;74432;-79
2023/01/23 10:44:46;;;;;;;46.50;27.40;;;;;;;2.25;100.00;99682.09;110489;1232;70655;-79
2023/01/23 10:47:34;;;;;;;43.30;25.60;;;;;;;2.24;100.00;99678.79;109955;1232;72422;-79
2023/01/23 10:50:01;;;;;;;40.00;25.70;;;;;;;2.09;100.00;99677.30;110906;1234;61159;-77
2023/01/23 10:52:31;;;;;;;85.40;41.10;;;;;;;2.05;100.00;99678.89;110818;1232;60104;-76
2023/01/23 10:54:57;;;;;;;87.70;49.90;;;;;;;2.09;100.00;99680.74;110757;1234;74464;-79
2023/01/23 10:57:28;;;;;;;56.80;35.10;;;;;;;2.05;100.00;99674.57;109724;1236;60967;-76
2023/01/23 11:00:00;;;;;;;46.70;27.20;;;;;;;2.03;100.00;99675.15;110051;1234;72433;-76
2023/01/23 11:02:31;;;;;;;57.30;33.00;;;;;;;2.05;100.00;99673.40;109625;1231;61328;-79
2023/01/23 11:04:58;;;;;;;53.00;33.10;;;;;;;2.10;100.00;99669.36;109372;1232;59169;-79
2023/01/23 11:07:29;;;;;;;41.50;24.50;;;;;;;2.15;100.00;99667.05;110894;1231;73411;-79
2023/01/23 11:09:55;;;;;;;39.50;23.70;;;;;;;2.21;100.00;99662.59;111047;1232;70920;-79
2023/01/23 11:12:29;;;;;;;44.30;22.80;;;;;;;2.25;100.00;99663.44;109986;1232;60880;-77
2023/01/23 11:15:22;;;;;;;47.70;25.10;;;;;;;2.26;100.00;99660.23;109370;1236;61382;-79
2023/01/23 11:17:49;;;;;;;54.40;27.70;;;;;;;2.25;100.00;99658.02;110635;1231;60772;-76
2023/01/23 11:20:26;;;;;;;51.00;27.70;;;;;;;2.22;100.00;99653.84;110533;1232;74426;-79